createdAt,value
2023-04-15T00:01:55.279Z,19.80
2023-04-15T00:04:22.488Z,16.90
2023-04-15T00:06:53.578Z,15.77
2023-04-15T00:09:21.482Z,13.35
2023-04-15T00:11:48.631Z,19.45
2023-04-15T00:14:15.815Z,15.70
2023-04-15T00:16:43.221Z,16.52
2023-04-15T00:19:10.622Z,14.52
2023-04-15T00:21:37.818Z,13.30
2023-04-15T00:24:05.258Z,11.85
2023-04-15T00:26:32.444Z,13.77
2023-04-15T00:28:59.934Z,12.73
2023-04-15T00:31:27.643Z,12.02
2023-04-15T00:33:54.900Z,19.73
2023-04-15T00:36:22.200Z,12.50
2023-04-15T00:38:49.650Z,17.70
2023-04-15T00:41:19.455Z,15.43
2023-04-15T00:43:47.004Z,12.35
2023-04-15T00:46:16.437Z,18.80
2023-04-15T00:48:44.627Z,13.38
2023-04-15T00:51:11.817Z,16.25
2023-04-15T00:53:39.181Z,16.10
2023-04-15T00:56:07.497Z,18.52
2023-04-15T00:58:34.915Z,17.20
2023-04-15T01:01:02.738Z,23.35
2023-04-15T01:03:31.496Z,23.00
2023-04-15T01:05:59.512Z,19.75
2023-04-15T01:08:29.462Z,20.95
2023-04-15T01:10:59.099Z,18.80
2023-04-15T01:13:27.403Z,24.40
2023-04-15T01:15:57.109Z,24.40
2023-04-15T01:18:24.839Z,22.27
2023-04-15T01:20:52.484Z,23.48
2023-04-15T01:23:20.058Z,27.45
2023-04-15T01:25:47.957Z,23.35
2023-04-15T01:28:15.149Z,24.15
2023-04-15T01:30:42.892Z,25.17
2023-04-15T01:33:09.993Z,22.80
2023-04-15T01:35:37.512Z,23.35
2023-04-15T01:38:09.070Z,26.90
2023-04-15T01:40:36.751Z,23.15
2023-04-15T01:43:04.153Z,23.33
2023-04-15T01:45:31.589Z,28.15
2023-04-15T01:47:58.931Z,24.45
2023-04-15T01:50:27.352Z,26.77
2023-04-15T01:52:54.895Z,24.52
2023-04-15T01:55:22.076Z,32.75
2023-04-15T01:57:49.341Z,28.02
2023-04-15T02:00:18.013Z,29.20
2023-04-15T02:02:45.337Z,30.75
2023-04-15T02:05:12.699Z,25.50
2023-04-15T02:07:41.205Z,35.50
2023-04-15T02:10:09.621Z,41.95
2023-04-15T02:12:37.204Z,39.70
2023-04-15T02:15:04.875Z,34.35
2023-04-15T02:17:36.109Z,37.55
2023-04-15T02:20:06.213Z,39.45
2023-04-15T02:22:33.313Z,38.20
2023-04-15T02:25:00.732Z,61.33
2023-04-15T02:27:29.338Z,47.13
2023-04-15T02:29:56.951Z,39.30
2023-04-15T02:32:24.913Z,47.65
2023-04-15T02:34:52.966Z,44.67
2023-04-15T02:37:20.696Z,44.55
2023-04-15T02:39:48.037Z,56.58
2023-04-15T02:42:15.165Z,50.80
2023-04-15T02:44:42.534Z,54.67
2023-04-15T02:47:11.016Z,60.88
2023-04-15T02:49:38.961Z,60.17
2023-04-15T02:52:06.625Z,55.67
2023-04-15T02:54:34.495Z,60.58
2023-04-15T02:57:01.996Z,51.90
2023-04-15T02:59:30.099Z,52.45
2023-04-15T03:02:01.176Z,60.30
2023-04-15T03:04:30.504Z,67.35
2023-04-15T03:06:58.030Z,62.45
2023-04-15T03:09:25.454Z,61.28
2023-04-15T03:11:55.218Z,59.30
2023-04-15T03:14:22.809Z,61.13
2023-04-15T03:16:50.872Z,62.17
2023-04-15T03:19:18.300Z,62.88
2023-04-15T03:21:45.492Z,68.53
2023-04-15T03:24:12.736Z,62.35
2023-04-15T03:26:40.258Z,54.35
2023-04-15T03:29:07.620Z,64.88
2023-04-15T03:31:35.181Z,60.20
2023-04-15T03:34:02.699Z,58.28
2023-04-15T03:36:33.484Z,53.63
2023-04-15T03:39:02.487Z,61.72
2023-04-15T03:41:29.876Z,58.25
2023-04-15T03:43:57.542Z,56.53
2023-04-15T03:46:25.354Z,63.22
2023-04-15T03:48:52.575Z,64.85
2023-04-15T03:51:20.890Z,64.80
2023-04-15T03:53:47.947Z,72.38
2023-04-15T03:56:15.169Z,66.50
2023-04-15T03:58:42.490Z,58.28
2023-04-15T04:01:10.565Z,69.28
2023-04-15T04:03:38.275Z,73.30
2023-04-15T04:06:05.695Z,76.03
2023-04-15T04:08:32.856Z,64.28
2023-04-15T04:11:00.113Z,70.63
2023-04-15T04:13:27.127Z,74.53
2023-04-15T04:15:54.571Z,70.28
2023-04-15T04:18:22.058Z,75.13
2023-04-15T04:20:49.561Z,76.70
2023-04-15T04:23:17.069Z,72.57
2023-04-15T04:25:44.289Z,79.53
2023-04-15T04:28:11.993Z,74.55
2023-04-15T04:30:42.286Z,74.47
2023-04-15T04:33:09.668Z,84.07
2023-04-15T04:35:38.118Z,83.18
2023-04-15T04:38:06.480Z,81.93
2023-04-15T04:40:33.757Z,80.05
2023-04-15T04:43:01.484Z,79.68
2023-04-15T04:45:28.726Z,76.35
2023-04-15T04:47:56.424Z,78.63
2023-04-15T04:50:23.797Z,80.35
2023-04-15T04:52:51.559Z,90.03
2023-04-15T04:55:18.767Z,75.78
2023-04-15T04:57:46.370Z,84.07
2023-04-15T05:00:14.413Z,71.50
2023-04-15T05:02:44.360Z,84.25
2023-04-15T05:05:14.842Z,78.88
2023-04-15T05:07:42.447Z,83.65
2023-04-15T05:10:10.184Z,75.68
2023-04-15T05:12:38.715Z,80.05
2023-04-15T05:15:07.260Z,80.00
2023-04-15T05:17:35.688Z,100.30
2023-04-15T05:20:04.079Z,78.70
2023-04-15T05:22:31.555Z,79.50
2023-04-15T05:24:58.700Z,86.05
2023-04-15T05:27:26.371Z,91.57
2023-04-15T05:29:53.564Z,78.82
2023-04-15T05:32:21.673Z,80.63
2023-04-15T05:34:49.160Z,78.82
2023-04-15T05:37:16.248Z,81.13
2023-04-15T05:39:46.504Z,87.30
2023-04-15T05:42:13.967Z,86.45
2023-04-15T05:44:41.339Z,86.32
2023-04-15T05:47:09.960Z,94.45
2023-04-15T05:49:37.775Z,93.90
2023-04-15T05:52:05.057Z,90.97
2023-04-15T05:54:32.398Z,83.03
2023-04-15T05:56:59.842Z,86.30
2023-04-15T05:59:28.690Z,88.63
2023-04-15T06:01:56.044Z,88.28
2023-04-15T06:04:26.491Z,80.38
2023-04-15T06:06:53.715Z,94.35
2023-04-15T06:09:21.232Z,90.82
2023-04-15T06:11:48.645Z,95.88
2023-04-15T06:14:15.874Z,86.47
2023-04-15T06:16:43.469Z,101.65
2023-04-15T06:19:11.258Z,87.93
2023-04-15T06:21:38.707Z,86.57
2023-04-15T06:24:06.365Z,87.90
2023-04-15T06:26:33.698Z,88.85
2023-04-15T06:29:01.160Z,100.80
2023-04-15T06:31:28.663Z,92.55
2023-04-15T06:33:55.943Z,93.95
2023-04-15T06:36:23.316Z,95.07
2023-04-15T06:38:50.767Z,101.68
2023-04-15T06:41:18.627Z,95.18
2023-04-15T06:43:45.901Z,94.43
2023-04-15T06:46:13.882Z,96.47
2023-04-15T06:48:41.664Z,98.63
2023-04-15T06:51:08.848Z,91.15
2023-04-15T06:53:41.204Z,99.68
2023-04-15T06:56:14.537Z,99.70
2023-04-15T06:58:41.767Z,100.43
2023-04-15T07:01:09.410Z,115.78
2023-04-15T07:03:37.082Z,103.50
2023-04-15T07:06:06.689Z,106.45
2023-04-15T07:08:34.357Z,101.07
2023-04-15T07:11:01.823Z,110.65
2023-04-15T07:13:32.118Z,97.50
2023-04-15T07:15:59.554Z,94.82
2023-04-15T07:18:26.717Z,100.93
2023-04-15T07:20:54.688Z,104.03
2023-04-15T07:23:21.820Z,98.35
2023-04-15T07:25:49.458Z,101.32
2023-04-15T07:28:16.963Z,92.18
2023-04-15T07:30:44.425Z,98.32
2023-04-15T07:33:11.876Z,108.57
2023-04-15T07:35:39.078Z,93.93
2023-04-15T07:38:06.228Z,94.97
2023-04-15T07:40:39.470Z,82.60
2023-04-15T07:43:06.922Z,88.00
2023-04-15T07:45:34.442Z,81.85
2023-04-15T07:48:02.884Z,94.55
2023-04-15T07:50:30.053Z,77.45
2023-04-15T07:52:57.601Z,86.65
2023-04-15T07:55:26.178Z,89.80
2023-04-15T07:57:54.673Z,89.57
2023-04-15T08:00:22.202Z,94.60
2023-04-15T08:02:50.302Z,102.75
2023-04-15T08:05:21.070Z,95.50
2023-04-15T08:07:48.542Z,78.30
2023-04-15T08:10:15.790Z,80.55
2023-04-15T08:12:49.448Z,87.75
2023-04-15T08:15:20.544Z,66.30
2023-04-15T08:17:48.034Z,79.07
2023-04-15T08:20:15.359Z,76.65
2023-04-15T08:22:42.907Z,71.38
2023-04-15T08:25:10.620Z,70.57
2023-04-15T08:27:38.175Z,88.45
2023-04-15T08:30:06.298Z,83.97
2023-04-15T08:32:33.640Z,109.05
2023-04-15T08:35:00.961Z,72.32
2023-04-15T08:37:28.181Z,68.75
2023-04-15T08:39:56.350Z,56.10
2023-04-15T08:42:43.679Z,60.70
2023-04-15T08:45:11.784Z,62.42
2023-04-15T08:47:40.641Z,75.88
2023-04-15T08:50:14.363Z,56.08
2023-04-15T08:52:41.728Z,64.78
2023-04-15T08:55:09.931Z,56.85
2023-04-15T08:57:38.465Z,49.05
2023-04-15T09:00:07.020Z,44.97
2023-04-15T09:02:35.245Z,51.47
2023-04-15T09:05:05.198Z,48.55
2023-04-15T09:07:35.705Z,47.22
2023-04-15T09:10:04.506Z,45.88
2023-04-15T09:12:35.365Z,54.63
2023-04-15T09:15:03.531Z,49.35
2023-04-15T09:17:34.831Z,58.92
2023-04-15T09:20:10.371Z,38.75
2023-04-15T09:22:38.426Z,40.45
2023-04-15T09:25:32.157Z,40.92
2023-04-15T09:28:02.426Z,35.28
2023-04-15T09:30:30.044Z,34.80
2023-04-15T09:33:08.479Z,46.35
2023-04-15T09:35:37.182Z,34.88
2023-04-15T09:38:07.692Z,33.80
2023-04-15T09:40:42.460Z,31.38
2023-04-15T09:43:13.157Z,33.30
2023-04-15T09:45:52.129Z,35.63
2023-04-15T09:48:26.254Z,34.00
2023-04-15T09:50:54.424Z,37.08
2023-04-15T09:53:23.521Z,34.20
2023-04-15T09:55:56.542Z,31.42
2023-04-15T09:58:26.652Z,40.67
2023-04-15T10:00:55.754Z,31.77
2023-04-15T10:03:35.765Z,31.80
2023-04-15T10:06:04.350Z,30.40
2023-04-15T10:08:34.007Z,31.35
2023-04-15T10:11:03.091Z,34.10
2023-04-15T10:13:37.544Z,29.08
2023-04-15T10:16:11.735Z,32.73
2023-04-15T10:18:43.958Z,26.33
2023-04-15T10:21:14.298Z,28.88
2023-04-15T10:23:41.985Z,28.45
2023-04-15T10:26:12.699Z,29.52
2023-04-15T10:28:39.737Z,24.38
2023-04-15T10:31:07.971Z,25.67
2023-04-15T10:33:36.006Z,29.85
2023-04-15T10:36:03.258Z,27.38
2023-04-15T10:38:40.716Z,29.42
2023-04-15T10:41:21.480Z,27.92
2023-04-15T10:44:01.984Z,24.38
2023-04-15T10:46:47.119Z,19.48
2023-04-15T10:49:16.724Z,20.85
2023-04-15T10:51:46.189Z,17.80
2023-04-15T10:54:26.754Z,22.25
2023-04-15T10:57:06.824Z,18.83
2023-04-15T10:59:37.629Z,19.17
2023-04-15T11:02:07.218Z,16.48
2023-04-15T11:05:00.346Z,14.68
2023-04-15T11:07:34.609Z,13.13
2023-04-15T11:10:02.212Z,11.82
2023-04-15T11:12:36.797Z,22.17
2023-04-15T11:15:30.690Z,30.55
2023-04-15T11:17:59.671Z,20.60
2023-04-15T11:20:30.379Z,26.30
2023-04-15T11:23:14.462Z,23.25
2023-04-15T11:25:46.090Z,27.25
2023-04-15T11:28:13.855Z,18.13
2023-04-15T11:30:44.926Z,22.15
2023-04-15T11:33:12.925Z,18.42
2023-04-15T11:35:42.441Z,22.80
2023-04-15T11:38:12.431Z,18.45
2023-04-15T11:40:40.482Z,23.10
2023-04-15T11:43:25.660Z,21.88
2023-04-15T11:46:10.700Z,22.92
2023-04-15T11:48:42.196Z,24.48
2023-04-15T11:51:17.281Z,19.10
2023-04-15T11:53:46.316Z,17.70
2023-04-15T11:56:22.226Z,18.88
2023-04-15T11:58:56.982Z,18.85
2023-04-15T12:01:44.236Z,16.55
2023-04-15T12:04:28.795Z,18.20
2023-04-15T12:07:06.013Z,18.38
2023-04-15T12:09:38.629Z,19.80
2023-04-15T12:12:06.198Z,16.00
2023-04-15T12:14:35.609Z,19.02
2023-04-15T12:17:07.336Z,21.40
2023-04-15T12:19:59.050Z,20.27
2023-04-15T12:22:26.232Z,21.60
2023-04-15T12:24:58.602Z,16.80
2023-04-15T12:27:29.262Z,26.08
2023-04-15T12:30:05.703Z,17.73
2023-04-15T12:32:36.088Z,20.13
2023-04-15T12:35:03.326Z,20.05
2023-04-15T12:37:30.738Z,16.17
2023-04-15T12:39:58.031Z,17.15
2023-04-15T12:42:25.542Z,13.73
2023-04-15T12:44:55.001Z,21.00
2023-04-15T12:47:22.190Z,18.33
2023-04-15T12:49:49.848Z,17.95
2023-04-15T12:52:16.997Z,16.67
2023-04-15T12:54:46.568Z,18.33
2023-04-15T12:57:13.953Z,16.80
2023-04-15T12:59:41.157Z,17.83
2023-04-15T13:02:09.213Z,18.25
2023-04-15T13:04:36.842Z,15.43
2023-04-15T13:07:04.697Z,16.75
2023-04-15T13:09:34.636Z,17.15
2023-04-15T13:12:01.969Z,15.43
2023-04-15T13:14:29.276Z,14.05
2023-04-15T13:16:56.493Z,14.93
2023-04-15T13:19:23.594Z,17.20
2023-04-15T13:21:50.875Z,15.98
2023-04-15T13:24:18.204Z,16.13
2023-04-15T13:26:45.290Z,15.13
2023-04-15T13:29:13.766Z,11.90
2023-04-15T13:31:41.352Z,11.50
2023-04-15T13:34:08.623Z,12.65
2023-04-15T13:36:38.938Z,12.18
2023-04-15T13:39:07.753Z,11.77
2023-04-15T13:41:35.011Z,13.02
2023-04-15T13:44:02.458Z,13.93
2023-04-15T13:46:29.804Z,16.30
2023-04-15T13:48:56.958Z,16.95
2023-04-15T13:51:24.685Z,17.75
2023-04-15T13:53:51.847Z,17.33
2023-04-15T13:56:19.152Z,20.25
2023-04-15T13:58:47.665Z,18.45
2023-04-15T14:01:14.786Z,16.23
2023-04-15T14:03:43.333Z,14.05
2023-04-15T14:06:10.873Z,17.77
2023-04-15T14:08:38.150Z,15.07
2023-04-15T14:11:05.615Z,17.85
2023-04-15T14:13:32.748Z,17.13
2023-04-15T14:16:00.032Z,14.63
2023-04-15T14:18:27.471Z,17.33
2023-04-15T14:20:54.923Z,20.58
2023-04-15T14:23:23.098Z,23.27
2023-04-15T14:25:51.978Z,18.90
2023-04-15T14:28:19.212Z,17.75
2023-04-15T14:30:46.856Z,23.80
2023-04-15T14:33:14.160Z,19.80
2023-04-15T14:35:41.659Z,17.10
2023-04-15T14:38:11.518Z,19.02
2023-04-15T14:40:39.386Z,18.48
2023-04-15T14:43:06.801Z,21.08
2023-04-15T14:45:34.101Z,19.63
2023-04-15T14:48:03.315Z,21.52
2023-04-15T14:50:31.702Z,18.38
2023-04-15T14:52:59.446Z,25.20
2023-04-15T14:55:26.641Z,22.15
2023-04-15T14:57:53.833Z,24.02
2023-04-15T15:00:23.577Z,23.63
2023-04-15T15:02:50.864Z,20.88
2023-04-15T15:05:18.177Z,20.02
2023-04-15T15:07:45.498Z,29.23
2023-04-15T15:10:13.774Z,28.30
2023-04-15T15:12:41.056Z,19.17
2023-04-15T15:15:19.446Z,26.05
2023-04-15T15:17:47.120Z,26.00
2023-04-15T15:20:14.383Z,19.75
2023-04-15T15:22:41.939Z,22.13
2023-04-15T15:25:09.139Z,20.25
2023-04-15T15:27:38.225Z,23.52
2023-04-15T15:30:09.423Z,26.15
2023-04-15T15:32:36.495Z,19.95
2023-04-15T15:35:06.988Z,23.15
2023-04-15T15:37:35.319Z,21.92
2023-04-15T15:40:06.401Z,23.88
2023-04-15T15:42:34.135Z,32.92
2023-04-15T15:45:01.854Z,17.20
2023-04-15T15:47:31.093Z,25.08
2023-04-15T15:49:58.522Z,23.73
2023-04-15T15:52:25.822Z,24.75
2023-04-15T15:54:53.177Z,26.08
2023-04-15T15:57:21.015Z,24.42
2023-04-15T15:59:48.233Z,23.35
2023-04-15T16:02:15.897Z,25.90
2023-04-15T16:04:43.674Z,29.10
2023-04-15T16:07:12.333Z,23.83
2023-04-15T16:09:41.606Z,23.13
2023-04-15T16:12:08.810Z,22.20
2023-04-15T16:14:36.933Z,24.15
2023-04-15T16:17:04.195Z,28.23
2023-04-15T16:19:33.350Z,25.02
2023-04-15T16:22:02.174Z,25.23
2023-04-15T16:26:59.567Z,27.77
2023-04-15T16:29:27.295Z,30.20
2023-04-15T16:31:56.198Z,29.52
2023-04-15T16:34:23.809Z,32.60
2023-04-15T16:36:51.177Z,35.63
2023-04-15T16:39:19.980Z,28.50
2023-04-15T16:41:47.137Z,25.73
2023-04-15T16:44:17.254Z,30.27
2023-04-15T16:46:44.491Z,25.77
2023-04-15T16:49:12.089Z,24.90
2023-04-15T16:51:39.807Z,27.73
2023-04-15T16:54:07.070Z,29.50
2023-04-15T16:56:34.573Z,28.15
2023-04-15T16:59:02.118Z,33.63
2023-04-15T17:01:29.829Z,27.38
2023-04-15T17:03:57.536Z,27.80
2023-04-15T17:06:24.871Z,23.05
2023-04-15T17:08:54.950Z,24.35
2023-04-15T17:11:22.296Z,31.00
2023-04-15T17:13:49.642Z,26.55
2023-04-15T17:16:17.131Z,25.75
2023-04-15T17:18:46.053Z,32.25
2023-04-15T17:21:13.751Z,29.55
2023-04-15T17:23:40.952Z,27.95
2023-04-15T17:26:11.404Z,28.13
2023-04-15T17:28:38.743Z,30.05
2023-04-15T17:31:06.477Z,28.95
2023-04-15T17:33:56.425Z,29.55
2023-04-15T17:36:22.295Z,32.45
2023-04-15T17:38:50.177Z,37.78
2023-04-15T17:41:17.438Z,27.17
2023-04-15T17:43:44.669Z,32.60
2023-04-15T17:46:13.808Z,27.92
2023-04-15T17:48:41.578Z,25.70
2023-04-15T17:51:08.983Z,30.02
2023-04-15T17:53:36.246Z,28.25
2023-04-15T17:56:03.745Z,30.92
2023-04-15T17:58:31.864Z,36.58
2023-04-15T18:00:59.035Z,28.02
2023-04-15T18:03:26.780Z,29.60
2023-04-15T18:05:54.293Z,33.38
2023-04-15T18:08:21.644Z,36.35
2023-04-15T18:10:48.896Z,45.88
2023-04-15T18:13:16.361Z,40.55
2023-04-15T18:15:47.504Z,28.40
2023-04-15T18:18:16.898Z,33.03
2023-04-15T18:20:44.341Z,29.42
2023-04-15T18:23:11.643Z,31.35
2023-04-15T18:25:39.675Z,30.13
2023-04-15T18:28:07.315Z,39.28
2023-04-15T18:30:35.629Z,33.53
2023-04-15T18:33:05.428Z,36.97
2023-04-15T18:35:35.755Z,31.85
2023-04-15T18:38:03.425Z,41.92
2023-04-15T18:40:30.800Z,34.38
2023-04-15T18:42:57.936Z,34.53
2023-04-15T18:45:25.508Z,35.35
2023-04-15T18:47:53.103Z,33.63
2023-04-15T18:50:23.072Z,32.05
2023-04-15T18:52:50.246Z,41.90
2023-04-15T18:55:19.110Z,33.80
2023-04-15T18:57:46.947Z,41.42
2023-04-15T19:00:16.393Z,51.08
2023-04-15T19:02:44.447Z,29.85
2023-04-15T19:05:14.678Z,36.47
2023-04-15T19:07:42.136Z,32.95
2023-04-15T19:10:09.723Z,32.42
2023-04-15T19:12:37.236Z,40.55
2023-04-15T19:15:05.195Z,33.72
2023-04-15T19:17:32.597Z,38.53
2023-04-15T19:19:59.909Z,30.10
2023-04-15T19:22:30.262Z,33.58
2023-04-15T19:24:57.612Z,28.70
2023-04-15T19:27:25.099Z,32.08
2023-04-15T19:29:52.344Z,30.00
2023-04-15T19:32:19.889Z,25.05
2023-04-15T19:34:47.588Z,32.47
2023-04-15T19:37:17.839Z,32.72
2023-04-15T19:39:45.178Z,40.15
2023-04-15T19:42:13.057Z,34.63
2023-04-15T19:44:43.111Z,29.50
2023-04-15T19:47:11.435Z,43.53
2023-04-15T19:49:39.072Z,34.00
2023-04-15T19:52:06.347Z,36.40
2023-04-15T19:54:33.734Z,27.48
2023-04-15T19:57:02.465Z,30.77
2023-04-15T19:59:29.520Z,36.53
2023-04-15T20:01:57.183Z,30.73
2023-04-15T20:04:24.812Z,28.30
2023-04-15T20:06:52.388Z,33.10
2023-04-15T20:09:19.768Z,31.48
2023-04-15T20:12:09.327Z,32.60
2023-04-15T20:14:35.015Z,31.75
2023-04-15T20:17:02.549Z,32.63
2023-04-15T20:19:30.150Z,36.83
2023-04-15T20:21:57.329Z,38.38
2023-04-15T20:24:24.718Z,41.13
2023-04-15T20:26:53.149Z,37.60
2023-04-15T20:29:23.403Z,33.08
2023-04-15T20:31:50.832Z,40.63
2023-04-15T20:34:18.252Z,33.28
2023-04-15T20:36:45.349Z,38.28
2023-04-15T20:39:12.641Z,37.35
2023-04-15T20:41:39.925Z,41.03
2023-04-15T20:44:07.032Z,36.83
2023-04-15T20:46:34.432Z,36.88
2023-04-15T20:49:02.060Z,40.22
2023-04-15T20:51:33.535Z,41.42
2023-04-15T20:54:01.095Z,38.40
2023-04-15T20:56:28.624Z,33.33
2023-04-15T20:58:55.704Z,40.13
2023-04-15T21:01:22.913Z,43.35
2023-04-15T21:03:50.333Z,44.15
2023-04-15T21:06:18.178Z,45.08
2023-04-15T21:08:45.185Z,37.03
2023-04-15T21:11:14.806Z,45.22
2023-04-15T21:13:48.363Z,35.25
2023-04-15T21:16:15.625Z,42.25
2023-04-15T21:18:44.845Z,40.45
2023-04-15T21:21:12.219Z,44.20
2023-04-15T21:23:39.727Z,45.90
2023-04-15T21:26:07.099Z,47.15
2023-04-15T21:28:35.031Z,57.25
2023-04-15T21:31:02.395Z,51.42
2023-04-15T21:33:29.583Z,47.28
2023-04-15T21:35:56.764Z,52.35
2023-04-15T21:38:24.174Z,46.28
2023-04-15T21:40:51.571Z,57.95
2023-04-15T21:43:19.041Z,54.65
2023-04-15T21:46:21.144Z,46.60
2023-04-15T21:48:33.577Z,48.47
2023-04-15T21:51:02.153Z,55.05
2023-04-15T21:53:29.706Z,50.15
2023-04-15T21:55:56.801Z,44.95
2023-04-15T21:58:24.023Z,51.13
2023-04-15T22:00:52.798Z,44.10
2023-04-15T22:03:20.499Z,47.85
2023-04-15T22:05:47.973Z,45.72
2023-04-15T22:08:15.189Z,51.90
2023-04-15T22:10:42.447Z,48.75
2023-04-15T22:13:11.582Z,46.63
2023-04-15T22:15:39.130Z,54.15
2023-04-15T22:18:06.285Z,46.80
2023-04-15T22:20:33.776Z,49.83
2023-04-15T22:23:03.710Z,52.63
2023-04-15T22:25:33.842Z,47.13
2023-04-15T22:28:01.941Z,55.65
2023-04-15T22:30:29.335Z,41.03
2023-04-15T22:32:56.510Z,49.15
2023-04-15T22:35:23.894Z,44.85
2023-04-15T22:37:52.397Z,48.90
2023-04-15T22:40:19.813Z,42.88
2023-04-15T22:42:47.069Z,47.38
2023-04-15T22:45:14.513Z,59.83
2023-04-15T22:47:41.677Z,52.47
2023-04-15T22:50:09.623Z,55.42
2023-04-15T22:52:37.156Z,54.05
2023-04-15T22:55:05.404Z,53.45
2023-04-15T22:57:32.725Z,50.53
2023-04-15T23:00:00.209Z,59.65
2023-04-15T23:02:27.656Z,55.33
2023-04-15T23:04:55.311Z,53.80
2023-04-15T23:07:22.642Z,51.95
2023-04-15T23:09:49.905Z,54.53
2023-04-15T23:12:17.250Z,62.75
2023-04-15T23:14:44.625Z,58.22
2023-04-15T23:17:11.646Z,58.85
2023-04-15T23:19:38.883Z,62.45
2023-04-15T23:22:07.401Z,66.88
2023-04-15T23:24:34.458Z,58.03
2023-04-15T23:27:01.646Z,59.65
2023-04-15T23:29:29.070Z,52.70
2023-04-15T23:31:57.418Z,60.35
2023-04-15T23:34:24.754Z,54.03
2023-04-15T23:36:51.984Z,56.95
2023-04-15T23:39:19.198Z,54.35
2023-04-15T23:41:46.482Z,58.20
2023-04-15T23:44:13.669Z,47.88
2023-04-15T23:46:41.036Z,47.35
2023-04-15T23:49:08.547Z,59.70
2023-04-15T23:51:35.899Z,54.38
2023-04-15T23:54:03.346Z,57.40
2023-04-15T23:56:30.754Z,51.17
2023-04-15T23:58:58.032Z,56.05
